createdAt,value
2022-12-09T00:00:40.136Z,3.63
2022-12-09T00:03:07.551Z,3.55
2022-12-09T00:05:34.714Z,3.25
2022-12-09T00:08:01.936Z,3.40
2022-12-09T00:10:29.476Z,3.67
2022-12-09T00:12:56.718Z,4.00
2022-12-09T00:15:24.008Z,3.90
2022-12-09T00:17:51.379Z,2.90
2022-12-09T00:20:18.456Z,3.28
2022-12-09T00:22:45.484Z,4.28
2022-12-09T00:25:12.899Z,3.27
2022-12-09T00:27:39.994Z,3.00
2022-12-09T00:30:08.152Z,3.75
2022-12-09T00:32:35.653Z,3.08
2022-12-09T00:35:04.804Z,3.38
2022-12-09T00:37:32.075Z,3.15
2022-12-09T00:39:59.304Z,3.13
2022-12-09T00:42:26.338Z,3.15
2022-12-09T00:44:53.677Z,3.50
2022-12-09T00:47:20.939Z,3.13
2022-12-09T00:49:48.245Z,2.97
2022-12-09T00:52:15.273Z,3.15
2022-12-09T00:54:42.371Z,3.70
2022-12-09T00:57:09.398Z,2.70
2022-12-09T00:59:36.514Z,3.50
2022-12-09T01:02:03.855Z,3.40
2022-12-09T01:04:31.290Z,2.47
2022-12-09T01:06:58.690Z,2.75
2022-12-09T01:09:25.981Z,2.97
2022-12-09T01:11:53.203Z,2.60
2022-12-09T01:14:20.823Z,3.17
2022-12-09T01:16:48.158Z,3.72
2022-12-09T01:19:15.251Z,4.00
2022-12-09T01:21:42.702Z,2.97
2022-12-09T01:24:11.219Z,3.55
2022-12-09T01:26:39.259Z,2.70
2022-12-09T01:29:06.801Z,2.70
2022-12-09T01:31:34.216Z,2.63
2022-12-09T01:34:01.582Z,3.15
2022-12-09T01:36:29.816Z,3.92
2022-12-09T01:38:58.907Z,2.95
2022-12-09T01:41:26.282Z,2.45
2022-12-09T01:44:28.670Z,2.70
2022-12-09T01:46:59.446Z,3.03
2022-12-09T01:49:31.339Z,3.13
2022-12-09T01:52:04.778Z,2.85
2022-12-09T01:54:32.595Z,2.78
2022-12-09T01:56:59.866Z,2.80
2022-12-09T01:59:27.719Z,3.28
2022-12-09T02:01:57.393Z,2.67
2022-12-09T02:04:25.034Z,2.67
2022-12-09T02:06:52.549Z,2.60
2022-12-09T02:09:19.953Z,3.10
2022-12-09T02:11:47.415Z,2.80
2022-12-09T02:14:20.723Z,2.40
2022-12-09T02:16:57.222Z,2.80
2022-12-09T02:19:49.778Z,2.63
2022-12-09T02:22:19.822Z,2.50
2022-12-09T02:24:53.837Z,2.58
2022-12-09T02:27:25.196Z,2.92
2022-12-09T02:30:07.035Z,3.42
2022-12-09T02:32:43.158Z,3.15
2022-12-09T02:35:12.485Z,2.67
2022-12-09T02:37:44.225Z,2.75
2022-12-09T02:40:21.219Z,2.58
2022-12-09T02:42:49.282Z,3.08
2022-12-09T02:45:17.449Z,2.40
2022-12-09T02:47:49.728Z,2.90
2022-12-09T02:50:18.993Z,2.60
2022-12-09T02:52:47.330Z,2.40
2022-12-09T02:55:15.806Z,2.50
2022-12-09T02:57:42.878Z,2.57
2022-12-09T03:00:11.295Z,3.08
2022-12-09T03:02:41.280Z,2.40
2022-12-09T03:05:27.270Z,2.55
2022-12-09T03:08:04.102Z,2.63
2022-12-09T03:10:34.828Z,2.40
2022-12-09T03:13:05.811Z,2.40
2022-12-09T03:15:36.058Z,3.28
2022-12-09T03:18:04.835Z,2.50
2022-12-09T03:20:34.092Z,2.63
2022-12-09T03:23:02.734Z,2.63
2022-12-09T03:25:35.052Z,2.40
2022-12-09T03:28:04.270Z,2.63
2022-12-09T03:30:36.142Z,2.97
2022-12-09T03:33:05.128Z,2.53
2022-12-09T03:35:34.971Z,2.45
2022-12-09T03:38:04.458Z,2.40
2022-12-09T03:40:32.366Z,3.25
2022-12-09T03:43:02.951Z,2.55
2022-12-09T03:45:30.327Z,2.73
2022-12-09T03:47:57.988Z,3.30
2022-12-09T03:50:27.953Z,2.75
2022-12-09T03:53:02.232Z,2.50
2022-12-09T03:55:47.188Z,2.38
2022-12-09T03:58:15.343Z,2.35
2022-12-09T04:00:42.990Z,2.47
2022-12-09T04:03:12.115Z,2.70
2022-12-09T04:05:39.806Z,2.72
2022-12-09T04:08:07.220Z,2.65
2022-12-09T04:10:34.571Z,2.60
2022-12-09T04:13:01.950Z,2.50
2022-12-09T04:15:29.408Z,2.45
2022-12-09T04:17:56.570Z,2.70
2022-12-09T04:20:23.666Z,2.40
2022-12-09T04:22:51.108Z,2.40
2022-12-09T04:25:18.329Z,2.28
2022-12-09T04:27:45.602Z,2.13
2022-12-09T04:30:13.412Z,2.40
2022-12-09T04:32:41.238Z,2.30
2022-12-09T04:35:08.891Z,2.20
2022-12-09T04:37:37.477Z,2.30
2022-12-09T04:40:06.569Z,2.20
2022-12-09T04:42:34.148Z,2.17
2022-12-09T04:45:01.540Z,2.30
2022-12-09T04:47:28.663Z,2.40
2022-12-09T04:49:55.774Z,2.47
2022-12-09T04:52:22.794Z,1.95
2022-12-09T04:54:50.928Z,2.50
2022-12-09T04:57:18.523Z,2.20
2022-12-09T04:59:45.834Z,2.30
2022-12-09T05:02:13.421Z,2.30
2022-12-09T05:04:42.936Z,2.35
2022-12-09T05:07:12.011Z,2.20
2022-12-09T05:09:39.720Z,2.30
2022-12-09T05:12:07.409Z,2.53
2022-12-09T05:14:35.041Z,2.35
2022-12-09T05:17:03.365Z,2.33
2022-12-09T05:19:31.110Z,2.10
2022-12-09T05:21:58.745Z,2.60
2022-12-09T05:24:26.100Z,2.20
2022-12-09T05:26:53.687Z,2.30
2022-12-09T05:29:22.992Z,2.47
2022-12-09T05:31:51.734Z,2.00
2022-12-09T05:34:19.196Z,2.10
2022-12-09T05:36:46.826Z,2.23
2022-12-09T05:39:14.582Z,2.38
2022-12-09T05:41:43.436Z,2.50
2022-12-09T05:44:14.648Z,2.23
2022-12-09T05:46:41.960Z,2.38
2022-12-09T05:49:09.546Z,2.38
2022-12-09T05:51:36.752Z,2.47
2022-12-09T05:54:05.490Z,2.25
2022-12-09T05:56:32.821Z,2.28
2022-12-09T05:59:00.819Z,2.25
2022-12-09T06:01:28.541Z,1.98
2022-12-09T06:03:56.478Z,2.13
2022-12-09T06:06:27.034Z,2.13
2022-12-09T06:09:01.799Z,2.50
2022-12-09T06:11:29.333Z,1.95
2022-12-09T06:13:57.087Z,2.30
2022-12-09T06:16:25.021Z,2.60
2022-12-09T06:18:52.595Z,2.20
2022-12-09T06:21:20.696Z,2.28
2022-12-09T06:23:48.873Z,2.15
2022-12-09T06:26:20.921Z,2.30
2022-12-09T06:28:48.753Z,2.30
2022-12-09T06:31:16.464Z,1.92
2022-12-09T06:33:59.961Z,2.13
2022-12-09T06:36:28.887Z,2.30
2022-12-09T06:38:57.019Z,1.90
2022-12-09T06:41:25.388Z,2.10
2022-12-09T06:43:52.654Z,2.20
2022-12-09T06:46:24.674Z,2.40
2022-12-09T06:48:53.041Z,2.13
2022-12-09T06:51:20.950Z,2.28
2022-12-09T06:53:48.346Z,2.40
2022-12-09T06:56:16.348Z,2.38
2022-12-09T06:58:44.526Z,2.25
2022-12-09T07:01:15.794Z,2.40
2022-12-09T07:03:44.219Z,2.30
2022-12-09T07:06:32.037Z,2.47
2022-12-09T07:09:01.184Z,2.90
2022-12-09T07:11:29.210Z,3.30
2022-12-09T07:13:56.855Z,4.22
2022-12-09T07:16:24.827Z,5.70
2022-12-09T07:18:52.185Z,6.10
2022-12-09T07:21:20.784Z,8.43
2022-12-09T07:23:48.443Z,8.07
2022-12-09T07:26:16.383Z,7.90
2022-12-09T07:28:44.272Z,12.15
2022-12-09T07:31:22.403Z,12.90
2022-12-09T07:33:50.769Z,16.05
2022-12-09T07:36:21.244Z,14.02
2022-12-09T07:38:49.034Z,12.05
2022-12-09T07:41:19.525Z,12.52
2022-12-09T07:43:46.933Z,15.02
2022-12-09T07:46:18.182Z,15.27
2022-12-09T07:48:45.907Z,13.02
2022-12-09T07:51:14.010Z,15.75
2022-12-09T07:53:41.324Z,13.20
2022-12-09T07:56:11.791Z,11.15
2022-12-09T07:58:39.625Z,13.63
2022-12-09T08:01:10.821Z,15.73
2022-12-09T08:03:38.376Z,22.17
2022-12-09T08:06:06.711Z,15.27
2022-12-09T08:08:34.816Z,13.75
2022-12-09T08:11:09.441Z,17.27
2022-12-09T08:13:37.329Z,20.48
2022-12-09T08:16:08.643Z,20.63
2022-12-09T08:18:36.646Z,26.77
2022-12-09T08:21:04.766Z,28.25
2022-12-09T08:23:32.159Z,20.50
2022-12-09T08:25:59.531Z,27.27
2022-12-09T08:28:27.643Z,20.08
2022-12-09T08:30:54.868Z,24.57
2022-12-09T08:33:22.261Z,24.50
2022-12-09T08:35:49.606Z,34.50
2022-12-09T08:38:16.741Z,31.67
2022-12-09T08:40:45.048Z,29.10
2022-12-09T08:43:12.219Z,23.33
2022-12-09T08:45:41.180Z,24.38
2022-12-09T08:48:08.947Z,32.42
2022-12-09T08:50:36.878Z,25.63
2022-12-09T08:53:05.343Z,26.00
2022-12-09T08:55:34.880Z,24.70
2022-12-09T08:58:02.239Z,26.65
2022-12-09T09:00:29.739Z,30.90
2022-12-09T09:02:57.343Z,26.13
2022-12-09T09:05:24.981Z,24.75
2022-12-09T09:07:52.435Z,29.02
2022-12-09T09:10:20.213Z,25.30
2022-12-09T09:12:47.712Z,22.77
2022-12-09T09:15:15.896Z,16.57
2022-12-09T09:17:48.181Z,12.00
2022-12-09T09:20:18.711Z,12.02
2022-12-09T09:22:49.339Z,8.25
2022-12-09T09:25:17.036Z,7.37
2022-12-09T09:27:44.658Z,12.35
2022-12-09T09:30:15.773Z,8.30
2022-12-09T09:32:43.132Z,5.63
2022-12-09T09:35:13.675Z,4.10
2022-12-09T09:37:41.185Z,5.95
2022-12-09T09:40:12.044Z,3.20
2022-12-09T09:42:45.902Z,3.47
2022-12-09T09:45:15.314Z,3.25
2022-12-09T09:47:44.218Z,4.25
2022-12-09T09:50:27.446Z,5.25
2022-12-09T09:52:56.039Z,5.53
2022-12-09T09:55:44.934Z,4.47
2022-12-09T09:58:12.525Z,3.30
2022-12-09T10:00:46.032Z,4.20
2022-12-09T10:03:36.590Z,5.70
2022-12-09T10:06:14.881Z,6.27
2022-12-09T10:09:01.487Z,6.22
2022-12-09T10:11:29.526Z,4.80
2022-12-09T10:13:57.422Z,6.57
2022-12-09T10:16:27.134Z,4.85
2022-12-09T10:19:01.257Z,3.65
2022-12-09T10:21:33.577Z,8.25
2022-12-09T10:24:13.558Z,6.28
2022-12-09T10:26:41.378Z,5.93
2022-12-09T10:29:16.200Z,9.57
2022-12-09T10:31:43.681Z,5.83
2022-12-09T10:34:12.003Z,7.03
2022-12-09T10:36:40.134Z,6.60
2022-12-09T10:39:07.399Z,4.88
2022-12-09T10:41:53.274Z,6.85
2022-12-09T10:44:21.822Z,6.77
2022-12-09T10:46:50.246Z,2.88
2022-12-09T10:49:22.895Z,5.97
2022-12-09T10:51:51.851Z,6.95
2022-12-09T10:54:21.651Z,3.50
2022-12-09T10:57:04.362Z,7.20
2022-12-09T10:59:32.149Z,6.63
2022-12-09T11:02:12.056Z,4.90
2022-12-09T11:05:01.503Z,6.95
2022-12-09T11:07:29.040Z,5.15
2022-12-09T11:10:00.729Z,9.55
2022-12-09T11:12:30.900Z,5.95
2022-12-09T11:15:24.034Z,12.50
2022-12-09T11:17:59.503Z,13.80
2022-12-09T11:20:31.621Z,12.18
2022-12-09T11:23:19.221Z,39.60
2022-12-09T11:25:54.859Z,28.50
2022-12-09T11:28:42.698Z,38.38
2022-12-09T11:31:33.339Z,29.08
2022-12-09T11:34:16.364Z,27.90
2022-12-09T11:36:48.526Z,27.58
2022-12-09T11:39:27.007Z,25.27
2022-12-09T11:42:19.636Z,21.52
2022-12-09T11:44:50.195Z,19.98
2022-12-09T11:47:50.334Z,23.30
2022-12-09T11:50:24.267Z,14.23
2022-12-09T11:53:10.342Z,18.70
2022-12-09T11:55:43.898Z,19.75
2022-12-09T11:58:14.414Z,14.88
2022-12-09T12:00:49.378Z,13.63
2022-12-09T12:03:36.909Z,17.17
2022-12-09T12:06:07.011Z,25.55
2022-12-09T12:08:46.449Z,14.02
2022-12-09T12:11:17.943Z,15.83
2022-12-09T12:13:50.266Z,16.23
2022-12-09T12:16:44.008Z,18.15
2022-12-09T12:19:30.050Z,19.23
2022-12-09T12:22:09.413Z,16.45
2022-12-09T12:24:36.512Z,17.35
2022-12-09T12:27:18.746Z,19.73
2022-12-09T12:29:50.210Z,16.35
2022-12-09T12:32:38.944Z,21.58
2022-12-09T12:35:15.700Z,18.40
2022-12-09T12:38:02.052Z,21.38
2022-12-09T12:40:49.429Z,18.98
2022-12-09T12:43:38.050Z,17.95
2022-12-09T12:46:18.609Z,16.45
2022-12-09T12:49:05.704Z,13.60
2022-12-09T12:51:48.432Z,17.77
2022-12-09T12:54:40.173Z,17.83
2022-12-09T12:57:12.439Z,15.60
2022-12-09T12:59:58.657Z,13.70
2022-12-09T13:02:32.048Z,16.50
2022-12-09T13:05:04.313Z,16.00
2022-12-09T13:07:37.162Z,11.70
2022-12-09T13:10:10.812Z,19.13
2022-12-09T13:12:55.382Z,14.68
2022-12-09T13:15:25.105Z,16.63
2022-12-09T13:17:52.445Z,12.30
2022-12-09T13:20:29.472Z,11.30
2022-12-09T13:23:01.439Z,15.38
2022-12-09T13:25:39.130Z,16.05
2022-12-09T13:28:11.679Z,17.75
2022-12-09T13:30:54.443Z,18.35
2022-12-09T13:33:40.485Z,17.13
2022-12-09T13:36:43.154Z,16.65
2022-12-09T13:39:13.723Z,14.57
2022-12-09T13:42:01.117Z,16.42
2022-12-09T13:44:32.677Z,20.35
2022-12-09T13:47:15.864Z,107.55
2022-12-09T13:49:42.973Z,162.77
2022-12-09T13:52:10.059Z,92.10
2022-12-09T13:54:46.099Z,96.90
2022-12-09T13:57:20.217Z,70.95
2022-12-09T13:59:50.628Z,87.53
2022-12-09T14:02:24.782Z,67.32
2022-12-09T14:04:56.515Z,70.25
2022-12-09T14:07:33.023Z,75.45
2022-12-09T14:10:00.888Z,71.80
2022-12-09T14:12:32.579Z,67.05
2022-12-09T14:15:05.789Z,66.82
2022-12-09T14:17:35.838Z,71.07
2022-12-09T14:20:22.950Z,70.20
2022-12-09T14:23:03.623Z,65.30
2022-12-09T14:25:33.717Z,56.83
2022-12-09T14:28:09.902Z,64.93
2022-12-09T14:31:08.933Z,62.75
